Latest Weather Observations for Charles Point

IDD60901

Issued at 10:51 am CST Monday 22 December 2014 (issued every 10 minutes, with the page automatically refreshed every 10 minutes)

About weather observations | Map of Darwin area stations | Latest observations for Darwin area | Other Formats
Station Details ID: 014031 Name: CHARLES POINT Lat: -12.39 Lon: 130.63 Height: 14.0 m
Data from the previous 72 hours. | See also: Recent months for locations in Northern Territory
Date/Time
CST
Tmp

°C
App
Tmp
°C
Dew
Point
°C
Rel
Hum
%
Delta-T

°C
Wind Press
QNH
hPa
Press
MSL
hPa
Rain
since
9 am
mm
Dir
 
Spd
km/h
Gust
km/h
Spd
kts
Gust
kts
22/10:30am 27.1 32.7 24.9 88 1.5 SE 4 6 2 3 1009.6 1009.4 0.4
22/10:00am 26.4 31.6 24.8 91 1.1 ESE 6 11 3 6 1009.6 1009.4 0.4
22/09:30am 24.4 28.5 23.2 93 0.8 SSE 7 11 4 6 1009.3 1009.1 0.0
22/09:00am 23.9 28.4 22.9 94 0.7 SSW 4 4 2 2 1009.4 1009.2 18.4
22/08:30am 23.8 27.4 22.4 92 0.9 WNW 7 13 4 7 1009.7 1009.5 18.0
22/08:00am 24.4 25.6 22.1 87 1.5 E 19 50 10 27 1010.4 1010.2 7.8
22/07:59am 24.6 25.9 22.3 87 1.5 E 19 50 10 27 1010.3 1010.1 6.4
22/07:30am 26.9 30.9 23.8 83 2.1 SE 9 24 5 13 1008.8 1008.6 0.0
22/07:00am 27.3 33.1 25.1 88 1.5 SE 4 6 2 3 1008.1 1007.9 0.0
22/06:30am 26.9 32.7 25.1 90 1.3 S 4 6 2 3 1007.9 1007.7 0.0
22/06:00am 27.1 33.0 25.3 90 1.3 S 4 6 2 3 1007.7 1007.5 0.0
22/05:30am 27.1 33.2 25.1 89 1.4 WSW 2 6 1 3 1007.3 1007.1 0.0
22/05:00am 27.3 33.8 25.1 88 1.5 CALM 0 0 0 0 1007.1 1006.9 0.0
22/04:30am 27.4 34.0 25.2 88 1.5 CALM 0 0 0 0 1007.0 1006.8 0.0
22/04:00am 27.6 34.3 25.4 88 1.5 CALM 0 0 0 0 1007.0 1006.8 0.0
22/03:30am 27.7 34.0 25.3 87 1.7 WSW 2 2 1 1 1007.1 1006.9 0.0
22/03:00am 27.9 33.5 24.9 84 2.1 WSW 4 4 2 2 1007.0 1006.8 0.0
22/02:30am 28.3 34.6 25.3 84 2.1 W 2 4 1 2 1007.0 1006.8 0.0
22/02:00am 28.8 34.6 25.2 81 2.5 W 4 6 2 3 1007.1 1006.9 0.0
22/01:30am 28.7 34.5 25.1 81 2.5 W 4 6 2 3 1007.5 1007.3 0.0
22/01:00am 28.9 34.5 24.9 79 2.8 WSW 4 6 2 3 1007.5 1007.3 0.0
22/12:30am 29.0 34.7 25.0 79 2.8 W 4 7 2 4 1007.7 1007.5 0.0
22/12:00am 29.1 34.9 25.1 79 2.8 W 4 7 2 4 1008.0 1007.8 0.0
 
Date/Time
CST
Tmp

°C
App
Tmp
°C
Dew
Point
°C
Rel
Hum
%
Delta-T

°C
Wind Press
QNH
hPa
Press
MSL
hPa
Rain
since
9 am
mm
Dir
 
Spd
km/h
Gust
km/h
Spd
kts
Gust
kts
21/11:30pm 29.4 34.4 24.5 75 3.4 W 6 9 3 5 1008.2 1008.0 0.0
21/11:00pm 29.8 34.5 24.9 75 3.4 WNW 9 15 5 8 1007.9 1007.7 0.0
21/10:30pm 30.0 34.0 25.1 75 3.5 NW 13 17 7 9 1007.9 1007.7 0.0
21/10:00pm 30.0 34.2 25.3 76 3.3 NW 13 19 7 10 1007.9 1007.7 0.0
21/09:30pm 30.1 34.7 25.4 76 3.3 NW 11 19 6 10 1007.7 1007.5 0.0
21/09:00pm 30.1 34.2 25.8 78 3.1 NNW 15 20 8 11 1007.2 1007.0 0.0
21/08:30pm 30.1 33.6 25.4 76 3.3 NNW 17 24 9 13 1007.0 1006.8 0.0
21/08:00pm 29.5 34.6 24.1 72 3.7 W 4 6 2 3 1006.4 1006.2 0.0
21/07:30pm 30.1 35.3 23.5 67 4.6 WNW 2 2 1 1 1005.9 1005.7 0.0
21/07:00pm 31.4 36.6 23.5 63 5.5 NNW 2 4 1 2 1005.9 1005.7 0.0
21/06:30pm 32.1 36.7 23.1 59 6.2 NNW 4 6 2 3 1005.1 1004.9 0.0
21/06:00pm 32.5 37.5 23.2 58 6.4 NW 2 4 1 2 1004.9 1004.7 0.0
21/05:30pm 32.8 37.3 23.7 58 6.3 NNW 6 9 3 5 1004.8 1004.6 0.0
21/05:00pm 32.2 36.8 23.2 59 6.2 NNW 4 6 2 3 1004.9 1004.7 0.0
21/04:30pm 32.1 36.6 23.9 62 5.7 N 7 11 4 6 1005.1 1004.9 0.0
21/04:00pm 32.2 37.0 24.5 64 5.4 N 7 11 4 6 1005.4 1005.2 0.0
21/03:30pm 31.8 36.4 24.1 63 5.4 N 7 11 4 6 1005.8 1005.6 0.0
21/03:00pm 31.6 35.6 23.7 63 5.5 N 9 11 5 6 1006.2 1006.0 0.0
21/02:30pm 31.5 36.0 23.9 64 5.3 N 7 11 4 6 1006.6 1006.4 0.0
21/02:00pm 31.5 36.2 24.9 68 4.6 N 9 13 5 7 1006.9 1006.7 0.0
21/01:30pm 31.5 36.2 24.9 68 4.7 NNE 9 13 5 7 1007.5 1007.3 0.0
21/01:00pm 31.7 37.1 25.5 69 4.4 NNE 7 13 4 7 1007.9 1007.7 0.0
21/12:30pm 31.5 36.8 25.8 72 4.1 NNE 9 13 5 7 1008.3 1008.1 0.0
21/12:00pm 32.1 38.0 26.2 71 4.2 ENE 7 11 4 6 1008.9 1008.7 0.0
21/11:30am 32.1 37.0 25.9 70 4.4 ENE 11 17 6 9 1009.4 1009.2 0.0
21/11:00am 32.1 37.2 26.2 71 4.2 ENE 11 17 6 9 1009.8 1009.6 0.0
21/10:30am 32.1 37.4 25.9 70 4.4 E 9 15 5 8 1009.8 1009.6 0.0
21/10:00am 31.3 37.0 25.9 73 3.8 ENE 7 13 4 7 1010.0 1009.8 0.0
21/09:30am 31.2 37.1 26.2 75 3.6 ESE 7 11 4 6 1010.0 1009.8 0.0
21/09:00am 30.6 36.4 25.7 75 3.5 SE 6 7 3 4 1010.1 1009.9 0.4
21/08:30am 30.4 36.9 25.7 76 3.3 WSW 2 4 1 2 1009.5 1009.3 0.4
21/08:00am 29.5 35.9 25.5 79 2.8 W 2 2 1 1 1009.1 1008.9 0.4
21/07:30am 28.7 35.4 25.9 85 2.0 W 2 6 1 3 1008.4 1008.2 0.4
21/07:00am 27.6 33.7 25.6 89 1.4 W 4 4 2 2 1008.2 1008.0 0.4
21/06:30am 27.7 34.2 25.7 89 1.4 W 2 4 1 2 1007.9 1007.7 0.4
21/06:00am 27.8 34.8 25.8 89 1.4 CALM 0 2 0 1 1007.6 1007.4 0.4
21/05:30am 27.7 33.8 25.1 86 1.8 W 2 4 1 2 1007.5 1007.3 0.4
21/05:00am 28.2 34.1 25.4 85 2.0 W 4 7 2 4 1007.1 1006.9 0.4
21/04:30am 28.5 34.4 25.3 83 2.3 WSW 4 6 2 3 1006.9 1006.7 0.4
21/04:00am 28.5 34.8 25.3 83 2.3 WSW 2 6 1 3 1006.8 1006.6 0.4
21/03:30am 28.9 34.3 25.1 80 2.7 W 6 9 3 5 1006.7 1006.5 0.4
21/03:00am 28.9 34.7 25.1 80 2.7 WSW 4 9 2 5 1006.7 1006.5 0.4
21/02:30am 28.9 34.5 24.9 79 2.8 WSW 4 9 2 5 1006.9 1006.7 0.2
21/02:00am 28.9 34.7 25.1 80 2.7 WSW 4 6 2 3 1007.4 1007.2 0.2
21/01:30am 28.9 34.9 25.5 82 2.4 WSW 4 7 2 4 1007.7 1007.5 0.2
21/01:00am 28.9 34.4 25.3 81 2.5 W 6 9 3 5 1008.2 1008.0 0.2
21/12:30am 29.6 35.0 25.1 77 3.2 W 6 9 3 5 1008.6 1008.4 0.2
21/12:00am 30.2 34.6 24.4 71 4.1 W 9 15 5 8 1008.7 1008.5 0.2
 
Date/Time
CST
Tmp

°C
App
Tmp
°C
Dew
Point
°C
Rel
Hum
%
Delta-T

°C
Wind Press
QNH
hPa
Press
MSL
hPa
Rain
since
9 am
mm
Dir
 
Spd
km/h
Gust
km/h
Spd
kts
Gust
kts
20/11:30pm 30.1 34.8 24.9 73 3.7 W 9 17 5 9 1009.0 1008.8 0.2
20/11:00pm 30.1 35.2 25.6 77 3.2 W 9 13 5 7 1008.9 1008.7 0.2
20/10:30pm 30.2 35.3 26.1 79 2.9 W 11 19 6 10 1008.7 1008.5 0.2
20/10:00pm 30.5 35.1 26.0 77 3.2 WNW 13 17 7 9 1008.4 1008.2 0.2
20/09:30pm 30.6 35.5 25.9 76 3.3 WNW 11 15 6 8 1008.0 1007.8 0.2
20/09:00pm 30.7 35.1 25.1 72 4.0 WNW 11 15 6 8 1007.8 1007.6 0.2
20/08:30pm 30.5 35.6 24.9 72 3.9 WNW 7 11 4 6 1007.1 1006.9 0.2
20/08:00pm 31.5 35.6 23.3 61 5.7 NW 7 13 4 7 1006.8 1006.6 0.2
20/07:30pm 31.9 35.8 22.6 58 6.4 NNW 6 7 3 4 1006.1 1005.9 0.2
20/07:00pm 31.8 35.5 23.9 63 5.5 N 11 11 6 6 1005.7 1005.5 0.2
20/06:30pm 32.1 36.0 24.2 63 5.5 N 11 13 6 7 1005.6 1005.4 0.2
20/06:00pm 32.2 35.5 23.2 59 6.2 NNE 11 11 6 6 1005.2 1005.0 0.2
20/05:30pm 32.1 36.0 24.2 63 5.5 N 11 13 6 7 1005.0 1004.8 0.2
20/05:00pm 31.5 35.9 25.1 69 4.5 NNE 11 15 6 8 1005.0 1004.8 0.2
20/04:30pm 31.3 36.2 25.9 73 3.9 N 11 13 6 7 1005.1 1004.9 0.2
20/04:00pm 31.4 36.0 24.8 68 4.6 NNE 9 13 5 7 1005.3 1005.1 0.2
20/03:30pm 31.4 36.1 24.3 66 5.0 NE 7 11 4 6 1005.6 1005.4 0.2
20/03:00pm 31.4 35.5 24.5 67 4.8 NNE 11 15 6 8 1006.1 1005.9 0.2
20/02:30pm 31.3 34.6 23.9 64 5.2 NE 13 17 7 9 1006.7 1006.5 0.2
20/02:00pm 31.4 35.2 24.0 65 5.2 NE 11 15 6 8 1007.0 1006.8 0.2
20/01:30pm 31.4 35.2 24.0 65 5.2 NE 11 15 6 8 1007.4 1007.2 0.2
20/01:00pm 30.6 35.0 23.8 67 4.7 NE 7 11 4 6 1007.8 1007.6 0.2
20/12:30pm 30.1 34.8 24.3 71 4.0 NNE 7 9 4 5 1008.3 1008.1 0.2
20/12:00pm 29.9 34.3 23.8 70 4.2 NNE 7 11 4 6 1008.8 1008.6 0.2
20/11:30am 30.1 34.8 24.3 71 4.0 NNE 7 9 4 5 1009.3 1009.1 0.2
20/11:00am 29.6 33.9 23.3 69 4.3 NE 6 9 3 5 1009.7 1009.5 0.2
20/10:30am 28.6 33.2 23.1 72 3.8 NNE 4 6 2 3 1010.1 1009.9 0.2
20/10:00am 28.6 33.7 23.3 73 3.6 NNE 2 6 1 3 1010.1 1009.9 0.0
20/09:30am 27.5 31.0 22.9 76 3.1 S 9 15 5 8 1010.2 1010.0 0.0
20/09:00am 26.9 30.0 22.9 79 2.7 S 11 15 6 8 1010.4 1010.2 45.0
20/08:30am 26.0 29.6 23.1 84 2.0 S 9 15 5 8 1010.4 1010.2 45.0
20/08:00am 25.4 28.4 22.7 85 1.8 S 11 17 6 9 1010.1 1009.9 45.0
20/07:30am 25.1 28.4 23.2 89 1.3 S 11 17 6 9 1009.9 1009.7 45.0
20/07:00am 24.7 28.5 23.5 93 0.8 SSW 9 15 5 8 1009.4 1009.2 45.0
20/06:30am 24.8 29.3 23.9 95 0.6 SSW 7 13 4 7 1009.9 1009.7 45.0
20/06:00am 24.6 28.9 23.7 95 0.6 SW 7 15 4 8 1010.1 1009.9 44.2
20/05:30am 24.7 27.1 23.7 94 0.7 S 17 26 9 14 1009.4 1009.2 41.0
20/05:00am 25.3 27.5 23.2 88 1.4 NE 17 30 9 16 1009.0 1008.8 22.0
20/04:42am 28.0 31.2 24.4 81 2.5 NNW 15 44 8 24 1007.8 1007.6 1.8
20/04:30am 30.5 35.7 25.1 73 3.8 W 7 15 4 8 1008.0 1007.8 0.0
20/04:00am 30.4 35.8 25.5 75 3.5 W 7 15 4 8 1008.0 1007.8 0.0
20/03:30am 30.6 34.3 25.7 75 3.5 WNW 17 20 9 11 1008.3 1008.1 0.0
20/03:00am 30.4 34.2 25.9 77 3.2 WNW 17 20 9 11 1008.3 1008.1 0.0
20/02:30am 30.3 33.8 25.4 75 3.5 WNW 17 22 9 12 1008.3 1008.1 0.0
20/02:00am 30.5 33.9 25.3 74 3.7 WNW 17 22 9 12 1008.4 1008.2 0.0
20/01:30am 30.3 34.0 25.1 73 3.7 NW 15 22 8 12 1008.1 1007.9 0.0
20/01:00am 30.1 33.7 25.6 77 3.2 NW 17 22 9 12 1009.0 1008.8 0.0
20/12:30am 30.7 35.0 25.5 74 3.7 NW 13 19 7 10 1010.1 1009.9 0.0
20/12:00am 30.8 35.1 26.1 76 3.4 WNW 15 20 8 11 1010.4 1010.2 0.0
 
Date/Time
CST
Tmp

°C
App
Tmp
°C
Dew
Point
°C
Rel
Hum
%
Delta-T

°C
Wind Press
QNH
hPa
Press
MSL
hPa
Rain
since
9 am
mm
Dir
 
Spd
km/h
Gust
km/h
Spd
kts
Gust
kts
19/11:30pm 29.4 34.8 24.5 75 3.4 W 4 9 2 5 1010.1 1009.9 0.0
19/11:00pm 29.2 34.4 23.6 72 3.9 SW 2 4 1 2 1010.7 1010.5 0.0
19/10:30pm 29.2 33.6 23.4 71 4.0 SSW 6 7 3 4 1010.5 1010.3 0.0
19/10:00pm 29.3 34.1 23.5 71 4.0 SW 4 6 2 3 1009.7 1009.5 0.0
19/09:30pm 29.2 33.4 23.2 70 4.1 SW 6 7 3 4 1009.4 1009.2 0.0
19/09:00pm 29.2 33.3 22.9 69 4.3 SSW 6 7 3 4 1009.1 1008.9 0.0
19/08:30pm 29.5 34.1 23.2 69 4.3 SSW 4 6 2 3 1008.7 1008.5 0.0
19/08:00pm 29.9 34.9 23.8 70 4.2 SSW 4 6 2 3 1008.4 1008.2 0.0
19/07:30pm 30.9 36.2 25.0 71 4.2 W 6 11 3 6 1008.1 1007.9 0.0
19/07:00pm 31.2 36.7 25.3 71 4.2 WSW 6 11 3 6 1007.9 1007.7 0.0
19/06:30pm 31.3 36.6 25.2 70 4.3 WSW 7 13 4 7 1007.5 1007.3 0.0
19/06:00pm 31.6 35.5 25.5 70 4.3 WNW 15 22 8 12 1006.7 1006.5 0.0
19/05:30pm 32.3 35.9 25.6 67 4.8 WNW 17 22 9 12 1006.7 1006.5 0.0
19/05:00pm 33.1 37.0 26.1 66 5.0 WNW 17 24 9 13 1006.1 1005.9 0.0
19/04:30pm 33.0 37.1 26.3 68 4.8 WNW 17 22 9 12 1006.4 1006.2 0.0
19/04:00pm 33.3 36.7 25.3 63 5.7 WNW 17 22 9 12 1006.7 1006.5 0.0
19/03:30pm 33.6 37.2 25.0 60 6.1 WNW 15 20 8 11 1006.9 1006.7 0.0
19/03:00pm 33.5 37.6 25.7 63 5.6 NW 15 20 8 11 1007.6 1007.4 0.0
19/02:30pm 33.8 37.7 25.5 62 5.9 NW 15 19 8 10 1008.0 1007.8 0.0
19/02:00pm 33.8 37.5 25.2 60 6.1 WNW 15 22 8 12 1008.5 1008.3 0.0
19/01:30pm 33.9 37.1 25.6 62 5.9 WNW 19 24 10 13 1009.1 1008.9 0.0
19/01:00pm 33.0 36.2 25.0 63 5.7 WNW 17 26 9 14 1009.4 1009.2 0.0
19/12:30pm 33.3 36.4 24.2 59 6.4 NW 15 19 8 10 1009.7 1009.5 0.0
19/12:00pm 33.0 37.1 25.8 66 5.1 WNW 15 20 8 11 1010.1 1009.9 0.0
19/11:30am 32.6 37.1 25.2 65 5.2 WNW 11 17 6 9 1010.5 1010.3 0.0
19/11:00am 32.4 37.2 25.7 68 4.8 WNW 11 17 6 9 1010.6 1010.4 0.0

Latest Capital City Observations: Canberra | Sydney | Melbourne | Brisbane | Adelaide | Perth | Hobart | Darwin

Other Formats:

Comma delimited format used in spreadsheet applications
http://www.bom.gov.au/fwo/IDD60901/IDD60901.99510.axf

JavaScript Object Notation format (JSON) in row-major order
http://www.bom.gov.au/fwo/IDD60901/IDD60901.99510.json